Alsea, Oregon
Current Conditions -  °F | °C
As of 9:55 PM on Tuesday 21 Oct 2014 (Local Time) from KCVO Reporting Station
Overcast Overcast  
Wind Chill: 13°   Ceiling: 8000
Heat Index: 13°   Visibility: 10mi
Dew Point: 11°   Wind: 9mph
Humidity: 88%   Direction: 170°S
Pressure: 29.89"   Gusts: NA
Location:  44.38°N, 123.6°W
Report Text: KCVO 220455Z AUTO 17008KT 10SM FEW070 OVC080 13/11 A2989 RMK AO1 P0001
Loading
Personal Weather Stations






























Interactive Weather Map New forecast layout! Learn more

10-Day Weather Forecast

Advertisements
Track Severe Weather on mobile